createdAt,value
2017-09-28T00:01:37.263Z,-90
2017-09-28T00:04:05.953Z,-90
2017-09-28T00:06:34.652Z,-89
2017-09-28T00:09:03.347Z,-91
2017-09-28T00:11:32.039Z,-90
2017-09-28T00:14:00.749Z,-89
2017-09-28T00:16:29.484Z,-90
2017-09-28T00:18:58.179Z,-90
2017-09-28T00:21:26.883Z,-90
2017-09-28T00:23:55.601Z,-90
2017-09-28T00:26:24.299Z,-90
2017-09-28T00:28:53.772Z,-90
2017-09-28T00:31:22.475Z,-90
2017-09-28T00:33:51.176Z,-90
2017-09-28T00:36:19.904Z,-90
2017-09-28T00:38:54.213Z,-90
2017-09-28T00:41:22.940Z,-89
2017-09-28T00:43:53.270Z,-90
2017-09-28T00:46:28.219Z,-90
2017-09-28T00:48:56.911Z,-90
2017-09-28T00:51:26.377Z,-90
2017-09-28T00:53:55.071Z,-89
2017-09-28T00:56:23.767Z,-89
2017-09-28T00:58:52.463Z,-90
2017-09-28T01:01:21.155Z,-90
2017-09-28T01:03:50.647Z,-90
2017-09-28T01:06:20.141Z,-90
2017-09-28T01:08:51.476Z,-92
2017-09-28T01:11:20.206Z,-91
2017-09-28T01:13:49.832Z,-91
2017-09-28T01:16:18.537Z,-89
2017-09-28T01:18:47.257Z,-91
2017-09-28T01:21:15.957Z,-92
2017-09-28T01:23:46.568Z,-92
2017-09-28T01:26:15.277Z,-91
2017-09-28T01:28:44.735Z,-91
2017-09-28T01:31:19.696Z,-91
2017-09-28T01:33:48.393Z,-91
2017-09-28T01:36:17.095Z,-88
2017-09-28T01:38:45.793Z,-88
2017-09-28T01:41:14.492Z,-91
2017-09-28T01:43:44.156Z,-91
2017-09-28T01:46:12.848Z,-88
2017-09-28T01:48:42.420Z,-88
2017-09-28T01:51:11.880Z,-88
2017-09-28T01:53:40.585Z,-88
2017-09-28T01:56:09.284Z,-88
2017-09-28T01:58:38.748Z,-88
2017-09-28T02:01:07.456Z,-88
2017-09-28T02:03:36.144Z,-89
2017-09-28T02:06:05.750Z,-89
2017-09-28T02:08:34.444Z,-91
2017-09-28T02:11:03.136Z,-91
2017-09-28T02:13:32.602Z,-91
2017-09-28T02:16:07.548Z,-91
2017-09-28T02:18:42.568Z,-91
2017-09-28T02:21:11.263Z,-91
2017-09-28T02:23:40.003Z,-91
2017-09-28T02:26:08.694Z,-91
2017-09-28T02:28:37.409Z,-88
2017-09-28T02:31:12.263Z,-91
2017-09-28T02:33:40.961Z,-91
2017-09-28T02:36:09.664Z,-91
2017-09-28T02:38:39.121Z,-90
2017-09-28T02:41:07.839Z,-91
2017-09-28T02:43:41.550Z,-91
2017-09-28T02:46:11.029Z,-91
2017-09-28T02:48:46.666Z,-91
2017-09-28T02:51:21.526Z,-88
2017-09-28T02:53:50.984Z,-88
2017-09-28T02:56:19.687Z,-88
2017-09-28T02:58:48.388Z,-88
2017-09-28T03:01:21.073Z,-90
2017-09-28T03:03:49.832Z,-90
2017-09-28T03:06:18.567Z,-91
2017-09-28T03:08:54.255Z,-91
2017-09-28T03:11:22.952Z,-91
2017-09-28T03:13:51.651Z,-91
2017-09-28T03:16:21.503Z,-91
2017-09-28T03:18:51.008Z,-91
2017-09-28T03:21:19.707Z,-91
2017-09-28T03:23:54.549Z,-91
2017-09-28T03:26:23.248Z,-91
2017-09-28T03:28:58.228Z,-91
2017-09-28T03:31:26.915Z,-91
2017-09-28T03:33:56.471Z,-91
2017-09-28T03:36:25.172Z,-91
2017-09-28T03:38:53.952Z,-91
2017-09-28T03:41:22.633Z,-91
2017-09-28T03:43:51.381Z,-91
2017-09-28T03:46:20.089Z,-91
2017-09-28T03:48:48.797Z,-91
2017-09-28T03:51:17.492Z,-91
2017-09-28T03:53:46.251Z,-91
2017-09-28T03:56:16.585Z,-91
2017-09-28T03:58:46.173Z,-91
2017-09-28T04:01:14.893Z,-90
2017-09-28T04:03:43.591Z,-91
2017-09-28T04:06:18.568Z,-91
2017-09-28T04:08:53.524Z,-88
2017-09-28T04:11:22.352Z,-91
2017-09-28T04:13:51.823Z,-90
2017-09-28T04:16:22.442Z,-91
2017-09-28T04:18:51.981Z,-90
2017-09-28T04:21:21.487Z,-91
2017-09-28T04:23:56.598Z,-91
2017-09-28T04:26:25.304Z,-90
2017-09-28T04:28:56.028Z,-90
2017-09-28T04:31:31.648Z,-91
2017-09-28T04:34:00.373Z,-90
2017-09-28T04:36:29.886Z,-88
2017-09-28T04:38:58.563Z,-88
2017-09-28T04:41:28.054Z,-88
2017-09-28T04:43:56.747Z,-88
2017-09-28T04:46:26.372Z,-90
2017-09-28T04:48:55.871Z,-90
2017-09-28T04:51:24.576Z,-91
2017-09-28T04:53:54.236Z,-90
2017-09-28T04:56:23.819Z,-91
2017-09-28T04:58:52.532Z,-91
2017-09-28T05:01:21.227Z,-90
2017-09-28T05:03:49.983Z,-88
2017-09-28T05:06:24.930Z,-91
2017-09-28T05:08:53.675Z,-90
2017-09-28T05:11:22.419Z,-91
2017-09-28T05:13:58.084Z,-91
2017-09-28T05:16:27.544Z,-89
2017-09-28T05:19:00.230Z,-87
2017-09-28T05:21:35.184Z,-88
2017-09-28T05:24:03.888Z,-87
2017-09-28T05:26:33.346Z,-86
2017-09-28T05:29:02.035Z,-87
2017-09-28T05:31:37.035Z,-87
2017-09-28T05:34:11.920Z,-87
2017-09-28T05:36:41.585Z,-88
2017-09-28T05:39:10.294Z,-86
2017-09-28T05:41:38.991Z,-84
2017-09-28T05:44:08.521Z,-84
2017-09-28T05:46:37.268Z,-85
2017-09-28T05:49:12.071Z,-88
2017-09-28T05:51:47.824Z,-88
2017-09-28T05:54:16.564Z,-87
2017-09-28T05:56:45.257Z,-87
2017-09-28T05:59:14.711Z,-87
2017-09-28T06:01:43.396Z,-87
2017-09-28T06:04:14.410Z,-86
2017-09-28T06:06:43.971Z,-86
2017-09-28T06:09:13.457Z,-87
2017-09-28T06:11:44.177Z,-87
2017-09-28T06:14:19.047Z,-88
2017-09-28T06:16:47.731Z,-85
2017-09-28T06:19:22.744Z,-87
2017-09-28T06:21:57.792Z,-87
2017-09-28T06:24:32.736Z,-88
2017-09-28T06:27:07.748Z,-84
2017-09-28T06:29:36.467Z,-83
2017-09-28T06:32:05.164Z,-84
2017-09-28T06:34:34.626Z,-83
2017-09-28T06:37:03.324Z,-82
2017-09-28T06:39:38.162Z,-84
2017-09-28T06:42:06.867Z,-86
2017-09-28T06:44:36.331Z,-85
2017-09-28T06:47:05.023Z,-86
2017-09-28T06:49:33.724Z,-85
2017-09-28T06:52:02.457Z,-82
2017-09-28T06:54:37.419Z,-82
2017-09-28T06:57:06.131Z,-82
2017-09-28T06:59:34.825Z,-82
2017-09-28T07:02:09.731Z,-83
2017-09-28T07:04:44.543Z,-83
2017-09-28T07:07:13.260Z,-82
2017-09-28T07:09:41.947Z,-82
2017-09-28T07:12:10.631Z,-82
2017-09-28T07:14:39.329Z,-79
2017-09-28T07:17:08.023Z,-79
2017-09-28T07:19:42.879Z,-81
2017-09-28T07:22:11.567Z,-81
2017-09-28T07:24:40.291Z,-84
2017-09-28T07:27:08.999Z,-85
2017-09-28T07:29:37.678Z,-83
2017-09-28T07:32:06.371Z,-80
2017-09-28T07:34:41.205Z,-79
2017-09-28T07:37:09.895Z,-80
2017-09-28T07:39:38.584Z,-82
2017-09-28T07:42:07.335Z,-84
2017-09-28T07:44:36.025Z,-79
2017-09-28T07:47:10.908Z,-79
2017-09-28T07:49:39.587Z,-82
2017-09-28T07:52:14.467Z,-82
2017-09-28T07:54:43.154Z,-81
2017-09-28T07:57:11.839Z,-82
2017-09-28T07:59:44.352Z,-82
2017-09-28T08:02:19.340Z,-78
2017-09-28T08:04:54.188Z,-80
2017-09-28T08:07:22.928Z,-79
2017-09-28T08:09:51.623Z,-79
2017-09-28T08:12:26.619Z,-80
2017-09-28T08:14:55.308Z,-79
2017-09-28T08:17:30.303Z,-79
2017-09-28T08:20:06.090Z,-79
2017-09-28T08:22:41.744Z,-79
2017-09-28T08:25:17.496Z,-79
2017-09-28T08:27:46.197Z,-79
2017-09-28T08:30:14.887Z,-82
2017-09-28T08:32:44.598Z,-80
2017-09-28T08:35:13.283Z,-80
2017-09-28T08:37:41.972Z,-79
2017-09-28T08:40:10.731Z,-79
2017-09-28T08:42:39.428Z,-79
2017-09-28T08:45:08.115Z,-82
2017-09-28T08:47:36.815Z,-82
2017-09-28T08:50:05.540Z,-82
2017-09-28T08:52:34.235Z,-82
2017-09-28T08:55:02.931Z,-79
2017-09-28T08:57:31.628Z,-82
2017-09-28T09:00:00.324Z,-81
2017-09-28T09:02:29.024Z,-80
2017-09-28T09:04:57.716Z,-82
2017-09-28T09:07:26.579Z,-82
2017-09-28T09:09:55.263Z,-79
2017-09-28T09:12:23.988Z,-80
2017-09-28T09:14:53.535Z,-80
2017-09-28T09:17:22.271Z,-80
2017-09-28T09:19:57.318Z,-80
2017-09-28T09:22:26.773Z,-79
2017-09-28T09:24:55.536Z,-81
2017-09-28T09:27:24.223Z,-81
2017-09-28T09:29:59.062Z,-80
2017-09-28T09:32:27.752Z,-79
2017-09-28T09:34:58.196Z,-79
2017-09-28T09:37:33.216Z,-79
2017-09-28T09:40:02.767Z,-79
2017-09-28T09:42:31.455Z,-80
2017-09-28T09:45:00.973Z,-79
2017-09-28T09:47:30.425Z,-80
2017-09-28T09:49:59.228Z,-79
2017-09-28T09:52:27.911Z,-80
2017-09-28T09:54:56.607Z,-80
2017-09-28T09:57:31.386Z,-81
2017-09-28T10:00:06.215Z,-80
2017-09-28T10:02:34.970Z,-80
2017-09-28T10:05:04.434Z,-80
2017-09-28T10:07:42.534Z,-82
2017-09-28T10:10:14.801Z,-81
2017-09-28T10:12:46.795Z,-81
2017-09-28T10:15:32.431Z,-80
2017-09-28T10:18:01.120Z,-79
2017-09-28T10:20:35.863Z,-80
2017-09-28T10:23:04.556Z,-82
2017-09-28T10:25:34.089Z,-80
2017-09-28T10:28:03.568Z,-80
2017-09-28T10:30:38.572Z,-80
2017-09-28T10:33:07.259Z,-81
2017-09-28T10:35:37.847Z,-81
2017-09-28T10:38:06.525Z,-81
2017-09-28T10:40:35.223Z,-81
2017-09-28T10:43:04.784Z,-81
2017-09-28T10:45:33.472Z,-81
2017-09-28T10:48:08.296Z,-81
2017-09-28T10:50:36.980Z,-81
2017-09-28T10:53:11.904Z,-80
2017-09-28T10:55:40.597Z,-80
2017-09-28T10:58:09.295Z,-81
2017-09-28T11:00:44.204Z,-81
2017-09-28T11:03:12.908Z,-81
2017-09-28T11:05:41.591Z,-81
2017-09-28T11:08:11.146Z,-81
2017-09-28T11:10:40.595Z,-81
2017-09-28T11:13:15.560Z,-81
2017-09-28T11:15:44.247Z,-81
2017-09-28T11:18:12.943Z,-81
2017-09-28T11:20:41.630Z,-81
2017-09-28T11:23:11.112Z,-81
2017-09-28T11:25:40.599Z,-81
2017-09-28T11:28:09.411Z,-82
2017-09-28T11:30:38.076Z,-80
2017-09-28T11:33:06.858Z,-81
2017-09-28T11:35:41.814Z,-81
2017-09-28T11:38:10.510Z,-81
2017-09-28T11:40:43.256Z,-81
2017-09-28T11:43:11.960Z,-81
2017-09-28T11:45:46.783Z,-81
2017-09-28T11:48:17.103Z,-81
2017-09-28T11:50:45.792Z,-81
2017-09-28T11:53:14.489Z,-81
2017-09-28T11:55:49.483Z,-83
2017-09-28T11:58:18.179Z,-81
2017-09-28T12:00:53.032Z,-81
2017-09-28T12:03:28.780Z,-81
2017-09-28T12:05:57.513Z,-81
2017-09-28T12:08:32.608Z,-81
2017-09-28T12:11:01.304Z,-81
2017-09-28T12:13:30.006Z,-81
2017-09-28T12:16:05.020Z,-81
2017-09-28T12:18:33.777Z,-81
2017-09-28T12:21:02.491Z,-81
2017-09-28T12:23:31.187Z,-81
2017-09-28T12:26:06.192Z,-81
2017-09-28T12:28:34.895Z,-81
2017-09-28T12:31:03.593Z,-81
2017-09-28T12:33:32.275Z,-82
2017-09-28T12:36:01.983Z,-81
2017-09-28T12:38:30.673Z,-81
2017-09-28T12:40:59.374Z,-81
2017-09-28T12:43:34.390Z,-81
2017-09-28T12:46:09.375Z,-81
2017-09-28T12:48:38.067Z,-81
2017-09-28T12:51:06.761Z,-81
2017-09-28T12:53:35.462Z,-81
2017-09-28T12:56:04.248Z,-81
2017-09-28T12:58:39.871Z,-81
2017-09-28T13:01:14.807Z,-81
2017-09-28T13:03:43.505Z,-81
2017-09-28T13:06:13.015Z,-81
2017-09-28T13:08:41.753Z,-81
2017-09-28T13:11:11.231Z,-81
2017-09-28T13:13:39.915Z,-81
2017-09-28T13:16:08.624Z,-81
2017-09-28T13:18:43.611Z,-81
2017-09-28T13:21:12.312Z,-81
2017-09-28T13:23:40.999Z,-81
2017-09-28T13:26:11.346Z,-81
2017-09-28T13:28:46.212Z,-81
2017-09-28T13:31:14.917Z,-81
2017-09-28T13:33:50.664Z,-81
2017-09-28T13:36:25.700Z,-81
2017-09-28T13:38:54.387Z,-81
2017-09-28T13:41:23.996Z,-81
2017-09-28T13:43:52.686Z,-81
2017-09-28T13:46:21.379Z,-81
2017-09-28T13:48:56.372Z,-81
2017-09-28T13:51:26.727Z,-81
2017-09-28T13:54:01.557Z,-81
2017-09-28T13:56:30.276Z,-81
2017-09-28T13:59:05.129Z,-81
2017-09-28T14:01:33.821Z,-81
2017-09-28T14:04:02.591Z,-81
2017-09-28T14:06:32.172Z,-81
2017-09-28T14:09:00.866Z,-81
2017-09-28T14:11:35.859Z,-81
2017-09-28T14:14:10.688Z,-81
2017-09-28T14:16:39.371Z,-81
2017-09-28T14:19:08.073Z,-81
2017-09-28T14:21:43.724Z,-81
2017-09-28T14:24:12.423Z,-81
2017-09-28T14:26:47.316Z,-81
2017-09-28T14:29:22.171Z,-81
2017-09-28T14:31:57.183Z,-81
2017-09-28T14:34:26.822Z,-81
2017-09-28T14:36:55.516Z,-82
2017-09-28T14:39:30.356Z,-82
2017-09-28T14:41:59.043Z,-82
2017-09-28T14:44:28.511Z,-81
2017-09-28T14:46:57.216Z,-81
2017-09-28T14:49:26.969Z,-81
2017-09-28T14:52:01.873Z,-81
2017-09-28T14:54:30.568Z,-81
2017-09-28T14:57:00.020Z,-81
2017-09-28T14:59:28.717Z,-81
2017-09-28T15:01:57.404Z,-81
2017-09-28T15:04:32.961Z,-81
2017-09-28T15:07:01.638Z,-81
2017-09-28T15:09:30.334Z,-81
2017-09-28T15:11:59.028Z,-81
2017-09-28T15:14:32.509Z,-81
2017-09-28T15:17:01.196Z,-81
2017-09-28T15:19:29.892Z,-81
2017-09-28T15:21:58.787Z,-81
2017-09-28T15:24:28.312Z,-81
2017-09-28T15:26:56.996Z,-81
2017-09-28T15:29:25.718Z,-81
2017-09-28T15:31:55.257Z,-84
2017-09-28T15:34:24.796Z,-83
2017-09-28T15:36:53.488Z,-84
2017-09-28T15:39:22.195Z,-85
2017-09-28T15:41:50.932Z,-84
2017-09-28T15:44:19.615Z,-81
2017-09-28T15:46:54.546Z,-82
2017-09-28T15:49:23.306Z,-83
2017-09-28T15:51:52.819Z,-81
2017-09-28T15:54:27.831Z,-82
2017-09-28T15:56:57.347Z,-81
2017-09-28T15:59:26.036Z,-81
2017-09-28T16:01:54.816Z,-81
2017-09-28T16:04:23.576Z,-81
2017-09-28T16:06:52.347Z,-82
2017-09-28T16:09:25.695Z,-81
2017-09-28T16:12:00.503Z,-81
2017-09-28T16:14:29.192Z,-81
2017-09-28T16:16:58.647Z,-81
2017-09-28T16:19:27.425Z,-81
2017-09-28T16:21:56.116Z,-81
2017-09-28T16:24:31.676Z,-81
2017-09-28T16:27:00.375Z,-81
2017-09-28T16:29:30.740Z,-81
2017-09-28T16:32:06.422Z,-81
2017-09-28T16:34:35.135Z,-81
2017-09-28T16:37:03.820Z,-81
2017-09-28T16:39:32.535Z,-81
2017-09-28T16:42:02.092Z,-81
2017-09-28T16:44:31.623Z,-81
2017-09-28T16:47:06.650Z,-81
2017-09-28T16:49:35.335Z,-81
2017-09-28T16:52:10.375Z,-80
2017-09-28T16:54:39.065Z,-81
2017-09-28T16:57:16.018Z,-80
2017-09-28T16:59:50.987Z,-80
2017-09-28T17:02:19.696Z,-81
2017-09-28T17:04:48.487Z,-83
2017-09-28T17:07:27.911Z,-82
2017-09-28T17:09:56.612Z,-84
2017-09-28T17:12:31.645Z,-84
2017-09-28T17:15:01.195Z,-84
2017-09-28T17:17:29.875Z,-82
2017-09-28T17:20:00.224Z,-79
2017-09-28T17:22:28.911Z,-83
2017-09-28T17:25:03.905Z,-83
2017-09-28T17:27:38.864Z,-83
2017-09-28T17:30:13.799Z,-84
2017-09-28T17:32:42.483Z,-84
2017-09-28T17:35:11.162Z,-83
2017-09-28T17:37:39.851Z,-82
2017-09-28T17:40:08.543Z,-81
2017-09-28T17:42:38.257Z,-83
2017-09-28T17:45:06.961Z,-84
2017-09-28T17:47:36.433Z,-83
2017-09-28T17:50:11.434Z,-83
2017-09-28T17:52:46.363Z,-84
2017-09-28T17:55:15.825Z,-83
2017-09-28T17:57:44.518Z,-84
2017-09-28T18:00:19.459Z,-84
2017-09-28T18:02:48.189Z,-84
2017-09-28T18:05:23.014Z,-84
2017-09-28T18:07:52.460Z,-84
2017-09-28T18:10:21.182Z,-83
2017-09-28T18:12:49.876Z,-86
2017-09-28T18:15:19.349Z,-84
2017-09-28T18:17:48.899Z,-85
2017-09-28T18:20:19.494Z,-82
2017-09-28T18:22:48.214Z,-83
2017-09-28T18:25:23.117Z,-84
2017-09-28T18:27:51.825Z,-85
2017-09-28T18:30:20.499Z,-83
2017-09-28T18:32:49.209Z,-84
2017-09-28T18:35:18.739Z,-84
2017-09-28T18:37:47.432Z,-88
2017-09-28T18:40:22.483Z,-88
2017-09-28T18:42:51.180Z,-88
2017-09-28T18:45:19.880Z,-87
2017-09-28T18:47:48.596Z,-88
2017-09-28T18:50:17.322Z,-88
2017-09-28T18:52:46.956Z,-87
2017-09-28T18:55:16.158Z,-88
2017-09-28T18:57:44.953Z,-86
2017-09-28T19:00:20.104Z,-87
2017-09-28T19:02:49.582Z,-87
2017-09-28T19:05:19.376Z,-87
2017-09-28T19:07:48.700Z,-86
2017-09-28T19:10:24.168Z,-88
2017-09-28T19:12:56.559Z,-87
2017-09-28T19:15:25.976Z,-87
2017-09-28T19:17:56.786Z,-87
2017-09-28T19:20:26.596Z,-84
2017-09-28T19:23:01.625Z,-84
2017-09-28T19:25:36.710Z,-84
2017-09-28T19:28:17.189Z,-84
2017-09-28T19:30:46.784Z,-84
2017-09-28T19:33:22.113Z,-84
2017-09-28T19:35:51.016Z,-85
2017-09-28T19:38:27.783Z,-85
2017-09-28T19:41:02.738Z,-85
2017-09-28T19:43:31.441Z,-84
2017-09-28T19:46:06.308Z,-85
2017-09-28T19:48:46.914Z,-85
2017-09-28T19:51:19.633Z,-87
2017-09-28T19:53:48.500Z,-85
2017-09-28T19:56:17.237Z,-86
2017-09-28T19:58:54.116Z,-84
2017-09-28T20:01:32.432Z,-84
2017-09-28T20:04:01.292Z,-85
2017-09-28T20:06:29.994Z,-86
2017-09-28T20:09:06.891Z,-84
2017-09-28T20:11:35.592Z,-84
2017-09-28T20:14:05.132Z,-84
2017-09-28T20:16:40.211Z,-84
2017-09-28T20:19:15.860Z,-84
2017-09-28T20:21:44.551Z,-84
2017-09-28T20:24:13.281Z,-84
2017-09-28T20:26:48.237Z,-84
2017-09-28T20:29:16.986Z,-84
2017-09-28T20:31:46.548Z,-84
2017-09-28T20:34:17.269Z,-84
2017-09-28T20:36:46.967Z,-84
2017-09-28T20:39:22.644Z,-85
2017-09-28T20:41:57.761Z,-84
2017-09-28T20:44:30.253Z,-84
2017-09-28T20:46:59.756Z,-84
2017-09-28T20:49:28.528Z,-84
2017-09-28T20:51:57.218Z,-84
2017-09-28T20:54:25.980Z,-84
2017-09-28T20:56:58.972Z,-84
2017-09-28T20:59:33.891Z,-84
2017-09-28T21:02:02.677Z,-84
2017-09-28T21:04:31.692Z,-84
2017-09-28T21:07:07.887Z,-84
2017-09-28T21:09:42.718Z,-84
2017-09-28T21:12:15.725Z,-84
2017-09-28T21:14:45.203Z,-82
2017-09-28T21:17:20.035Z,-84
2017-09-28T21:19:54.896Z,-84
2017-09-28T21:22:24.631Z,-84
2017-09-28T21:24:53.371Z,-84
2017-09-28T21:27:23.127Z,-84
2017-09-28T21:29:58.051Z,-84
2017-09-28T21:32:32.827Z,-84
2017-09-28T21:35:01.521Z,-84
2017-09-28T21:37:36.538Z,-84
2017-09-28T21:40:05.223Z,-84
2017-09-28T21:42:33.916Z,-84
2017-09-28T21:45:02.652Z,-84
2017-09-28T21:47:31.345Z,-84
2017-09-28T21:50:00.032Z,-84
2017-09-28T21:52:34.824Z,-84
2017-09-28T21:55:03.545Z,-84
2017-09-28T21:57:38.532Z,-84
2017-09-28T22:00:08.113Z,-83
2017-09-28T22:02:37.797Z,-84
2017-09-28T22:05:06.479Z,-84
2017-09-28T22:07:35.167Z,-84
2017-09-28T22:10:03.851Z,-83
2017-09-28T22:12:32.562Z,-84
2017-09-28T22:15:01.255Z,-84
2017-09-28T22:17:35.019Z,-84
2017-09-28T22:20:03.713Z,-84
2017-09-28T22:22:32.391Z,-84
2017-09-28T22:25:01.089Z,-83
2017-09-28T22:27:29.814Z,-84
2017-09-28T22:29:58.508Z,-84
2017-09-28T22:32:27.202Z,-84
2017-09-28T22:34:55.912Z,-86
2017-09-28T22:37:30.779Z,-86
2017-09-28T22:40:00.356Z,-86
2017-09-28T22:42:29.039Z,-86
2017-09-28T22:44:57.732Z,-86
2017-09-28T22:47:26.431Z,-86
2017-09-28T22:49:55.884Z,-86
2017-09-28T22:52:24.733Z,-84
2017-09-28T22:54:53.411Z,-84
2017-09-28T22:57:22.934Z,-84
2017-09-28T22:59:51.633Z,-84
2017-09-28T23:02:25.364Z,-85
2017-09-28T23:04:54.080Z,-84
2017-09-28T23:07:23.533Z,-84
2017-09-28T23:09:52.228Z,-84
2017-09-28T23:12:20.920Z,-84
2017-09-28T23:14:49.639Z,-84
2017-09-28T23:17:19.092Z,-84
2017-09-28T23:19:47.813Z,-84
2017-09-28T23:22:16.500Z,-84
2017-09-28T23:24:45.188Z,-84
2017-09-28T23:27:20.104Z,-86
2017-09-28T23:29:49.706Z,-85
2017-09-28T23:32:18.364Z,-86
2017-09-28T23:34:47.811Z,-86
2017-09-28T23:37:16.519Z,-86
2017-09-28T23:39:46.315Z,-86
2017-09-28T23:42:15.003Z,-86
2017-09-28T23:44:43.698Z,-86
2017-09-28T23:47:12.384Z,-86
2017-09-28T23:49:41.087Z,-86
2017-09-28T23:52:11.393Z,-86
2017-09-28T23:54:40.153Z,-86
2017-09-28T23:57:08.833Z,-86
2017-09-28T23:59:42.605Z,-86
